createdAt,value
2022-09-22T00:00:18.287Z,17.27
2022-09-22T00:02:51.016Z,17.23
2022-09-22T00:05:24.036Z,17.21
2022-09-22T00:07:56.884Z,17.25
2022-09-22T00:10:30.005Z,17.25
2022-09-22T00:13:03.405Z,17.24
2022-09-22T00:15:37.806Z,17.22
2022-09-22T00:18:10.533Z,17.16
2022-09-22T00:20:43.312Z,17.15
2022-09-22T00:23:16.129Z,17.13
2022-09-22T00:25:50.462Z,17.18
2022-09-22T00:28:25.703Z,17.10
2022-09-22T00:30:59.702Z,17.07
2022-09-22T00:33:32.461Z,17.08
2022-09-22T00:36:05.898Z,17.05
2022-09-22T00:38:40.253Z,16.98
2022-09-22T00:41:18.880Z,17.04
2022-09-22T00:44:12.372Z,17.01
2022-09-22T00:46:48.965Z,17.01
2022-09-22T00:49:34.576Z,16.91
2022-09-22T00:52:07.965Z,16.98
2022-09-22T00:54:40.974Z,17.03
2022-09-22T00:57:15.391Z,16.88
2022-09-22T00:59:50.814Z,16.84
2022-09-22T01:02:26.189Z,16.88
2022-09-22T01:04:59.433Z,16.88
2022-09-22T01:07:32.697Z,16.80
2022-09-22T01:10:06.096Z,16.87
2022-09-22T01:12:43.871Z,16.75
2022-09-22T01:15:27.648Z,16.71
2022-09-22T01:18:14.889Z,16.76
2022-09-22T01:21:20.315Z,16.75
2022-09-22T01:24:22.970Z,16.79
2022-09-22T01:27:31.147Z,16.79
2022-09-22T01:30:24.187Z,16.70
2022-09-22T01:33:19.213Z,16.74
2022-09-22T01:36:03.893Z,16.72
2022-09-22T01:38:43.721Z,16.65
2022-09-22T01:41:22.185Z,16.53
2022-09-22T01:44:00.991Z,16.64
2022-09-22T01:46:39.462Z,16.61
2022-09-22T01:49:16.437Z,16.53
2022-09-22T01:51:53.792Z,16.57
2022-09-22T01:54:32.305Z,16.55
2022-09-22T01:57:12.584Z,16.38
2022-09-22T01:59:50.989Z,16.48
2022-09-22T02:02:30.526Z,16.40
2022-09-22T02:05:09.477Z,16.33
2022-09-22T02:07:49.881Z,16.51
2022-09-22T02:10:29.040Z,16.30
2022-09-22T02:13:03.147Z,16.30
2022-09-22T02:15:54.296Z,16.42
2022-09-22T02:18:33.361Z,16.32
2022-09-22T02:21:06.390Z,16.23
2022-09-22T02:23:40.969Z,16.24
2022-09-22T02:26:16.961Z,16.12
2022-09-22T02:28:50.069Z,16.20
2022-09-22T02:31:24.351Z,16.15
2022-09-22T02:33:58.886Z,16.12
2022-09-22T02:36:44.565Z,16.01
2022-09-22T02:39:21.238Z,16.11
2022-09-22T02:42:07.691Z,16.11
2022-09-22T02:44:47.000Z,16.08
2022-09-22T02:47:25.857Z,15.96
2022-09-22T02:50:01.332Z,16.00
2022-09-22T02:52:33.983Z,15.98
2022-09-22T02:55:07.991Z,15.99
2022-09-22T02:57:40.657Z,15.95
2022-09-22T03:00:14.265Z,15.95
2022-09-22T03:02:47.155Z,16.06
2022-09-22T03:05:21.380Z,15.93
2022-09-22T03:07:54.046Z,15.89
2022-09-22T03:10:26.757Z,15.87
2022-09-22T03:13:16.769Z,15.84
2022-09-22T03:15:51.031Z,15.78
2022-09-22T03:18:23.755Z,15.83
2022-09-22T03:20:57.838Z,15.84
2022-09-22T03:23:30.615Z,15.87
2022-09-22T03:26:03.349Z,15.72
2022-09-22T03:28:35.969Z,15.82
2022-09-22T03:31:08.672Z,15.74
2022-09-22T03:33:41.671Z,15.75
2022-09-22T03:36:15.656Z,15.75
2022-09-22T03:38:48.344Z,15.74
2022-09-22T03:41:21.433Z,15.72
2022-09-22T03:43:54.533Z,15.67
2022-09-22T03:46:27.110Z,15.73
2022-09-22T03:48:59.786Z,15.66
2022-09-22T03:51:34.275Z,15.64
2022-09-22T03:54:07.120Z,15.66
2022-09-22T03:56:40.359Z,15.65
2022-09-22T03:59:12.890Z,15.57
2022-09-22T04:01:45.890Z,15.58
2022-09-22T04:04:18.785Z,15.55
2022-09-22T04:06:54.128Z,15.63
2022-09-22T04:09:26.797Z,15.47
2022-09-22T04:11:59.438Z,15.41
2022-09-22T04:14:32.145Z,15.40
2022-09-22T04:17:05.243Z,15.39
2022-09-22T04:19:37.970Z,15.45
2022-09-22T04:22:12.013Z,15.41
2022-09-22T04:24:44.844Z,15.40
2022-09-22T04:27:20.665Z,15.34
2022-09-22T04:29:53.745Z,15.30
2022-09-22T04:32:26.522Z,15.30
2022-09-22T04:34:59.388Z,15.28
2022-09-22T04:37:33.530Z,15.32
2022-09-22T04:40:07.149Z,15.27
2022-09-22T04:42:40.049Z,15.15
2022-09-22T04:45:13.104Z,15.24
2022-09-22T04:47:46.712Z,15.27
2022-09-22T04:50:20.941Z,15.28
2022-09-22T04:52:56.917Z,15.17
2022-09-22T04:55:29.824Z,15.18
2022-09-22T04:58:02.734Z,15.19
2022-09-22T05:00:36.385Z,15.14
2022-09-22T05:03:10.169Z,15.18
2022-09-22T05:05:42.835Z,15.11
2022-09-22T05:08:17.636Z,15.09
2022-09-22T05:10:50.294Z,15.13
2022-09-22T05:13:23.307Z,15.05
2022-09-22T05:15:56.174Z,15.15
2022-09-22T05:18:28.902Z,15.11
2022-09-22T05:21:02.250Z,15.11
2022-09-22T05:23:37.029Z,15.02
2022-09-22T05:26:09.831Z,15.09
2022-09-22T05:28:42.835Z,15.02
2022-09-22T05:31:15.621Z,15.00
2022-09-22T05:33:48.747Z,15.05
2022-09-22T05:36:21.785Z,14.91
2022-09-22T05:38:55.875Z,14.86
2022-09-22T05:41:28.513Z,14.88
2022-09-22T05:44:01.305Z,14.90
2022-09-22T05:46:34.004Z,14.84
2022-09-22T05:49:06.873Z,14.89
2022-09-22T05:51:39.675Z,14.97
2022-09-22T05:54:18.971Z,14.95
2022-09-22T05:56:53.963Z,14.81
2022-09-22T05:59:26.571Z,14.81
2022-09-22T06:02:00.148Z,14.82
2022-09-22T06:04:33.155Z,14.79
2022-09-22T06:07:06.282Z,14.78
2022-09-22T06:09:40.585Z,14.87
2022-09-22T06:12:13.646Z,14.91
2022-09-22T06:14:46.173Z,14.90
2022-09-22T06:17:18.816Z,14.87
2022-09-22T06:19:51.950Z,14.83
2022-09-22T06:22:24.960Z,14.91
2022-09-22T06:24:58.889Z,14.94
2022-09-22T06:27:31.684Z,14.86
2022-09-22T06:30:04.952Z,14.97
2022-09-22T06:32:39.109Z,15.00
2022-09-22T06:35:11.903Z,14.97
2022-09-22T06:37:44.654Z,14.99
2022-09-22T06:40:18.790Z,14.97
2022-09-22T06:42:51.714Z,15.01
2022-09-22T06:45:25.073Z,15.02
2022-09-22T06:47:59.064Z,15.15
2022-09-22T06:50:32.270Z,15.20
2022-09-22T06:53:08.196Z,15.09
2022-09-22T06:55:44.066Z,15.09
2022-09-22T06:58:17.202Z,15.19
2022-09-22T07:00:50.655Z,15.19
2022-09-22T07:03:24.317Z,15.27
2022-09-22T07:06:01.093Z,15.36
2022-09-22T07:08:35.668Z,15.39
2022-09-22T07:11:11.087Z,15.46
2022-09-22T07:13:45.693Z,15.53
2022-09-22T07:16:20.086Z,15.59
2022-09-22T07:18:53.910Z,15.64
2022-09-22T07:21:30.398Z,15.75
2022-09-22T07:24:03.739Z,15.89
2022-09-22T07:26:40.341Z,15.84
2022-09-22T07:29:13.776Z,15.90
2022-09-22T07:31:46.553Z,15.92
2022-09-22T07:34:19.436Z,15.97
2022-09-22T07:36:52.598Z,16.06
2022-09-22T07:39:25.250Z,16.12
2022-09-22T07:41:59.669Z,16.22
2022-09-22T07:44:50.142Z,16.36
2022-09-22T07:47:42.914Z,16.47
2022-09-22T07:50:17.229Z,16.52
2022-09-22T07:52:52.996Z,16.66
2022-09-22T07:55:26.325Z,16.70
2022-09-22T07:58:01.926Z,16.71
2022-09-22T08:00:36.430Z,16.93
2022-09-22T08:03:09.786Z,17.09
2022-09-22T08:05:42.550Z,17.24
2022-09-22T08:08:15.309Z,17.32
2022-09-22T08:10:49.030Z,17.53
2022-09-22T08:13:23.739Z,17.70
2022-09-22T08:15:56.668Z,17.74
2022-09-22T08:18:29.421Z,17.87
2022-09-22T08:21:04.474Z,18.00
2022-09-22T08:23:39.229Z,18.06
2022-09-22T08:26:11.966Z,18.30
2022-09-22T08:28:47.086Z,18.41
2022-09-22T08:31:20.964Z,18.46
2022-09-22T08:33:56.130Z,18.66
2022-09-22T08:36:29.319Z,18.89
2022-09-22T08:39:03.839Z,19.00
2022-09-22T08:41:43.971Z,19.07
2022-09-22T08:44:26.888Z,19.23
2022-09-22T08:47:02.826Z,19.76
2022-09-22T08:49:58.369Z,20.04
2022-09-22T08:52:37.275Z,20.25
2022-09-22T08:55:20.174Z,20.11
2022-09-22T08:58:04.094Z,20.24
2022-09-22T09:00:42.931Z,20.47
2022-09-22T09:03:31.162Z,20.68
2022-09-22T09:06:11.236Z,20.92
2022-09-22T09:09:05.125Z,20.88
2022-09-22T09:12:10.371Z,21.03
2022-09-22T09:14:59.089Z,21.21
2022-09-22T09:17:37.624Z,21.40
2022-09-22T09:20:18.545Z,21.59
2022-09-22T09:22:55.847Z,21.68
2022-09-22T09:25:36.844Z,21.61
2022-09-22T09:28:15.365Z,21.84
2022-09-22T09:30:51.298Z,21.98
2022-09-22T09:33:31.446Z,22.21
2022-09-22T09:36:04.337Z,22.31
2022-09-22T09:38:44.833Z,22.23
2022-09-22T09:41:20.653Z,22.40
2022-09-22T09:43:54.446Z,22.50
2022-09-22T09:46:43.878Z,22.46
2022-09-22T09:49:21.175Z,22.61
2022-09-22T09:51:56.828Z,22.78
2022-09-22T09:54:29.939Z,22.85
2022-09-22T09:57:07.091Z,22.78
2022-09-22T09:59:59.433Z,22.87
2022-09-22T10:02:34.258Z,22.98
2022-09-22T10:05:22.851Z,23.12
2022-09-22T10:07:59.185Z,23.27
2022-09-22T10:10:35.802Z,23.33
2022-09-22T10:13:34.378Z,23.49
2022-09-22T10:16:25.263Z,23.50
2022-09-22T10:19:06.948Z,23.58
2022-09-22T10:21:41.232Z,23.50
2022-09-22T10:24:25.648Z,23.80
2022-09-22T10:27:00.378Z,23.93
2022-09-22T10:29:36.593Z,23.95
2022-09-22T10:32:16.882Z,24.08
2022-09-22T10:34:51.137Z,24.01
2022-09-22T10:37:29.832Z,24.09
2022-09-22T10:40:04.378Z,24.18
2022-09-22T10:42:40.919Z,24.22
2022-09-22T10:45:15.357Z,24.44
2022-09-22T10:47:57.588Z,24.47
2022-09-22T10:50:41.168Z,24.61
2022-09-22T10:53:33.192Z,24.66
2022-09-22T10:56:14.696Z,24.82
2022-09-22T10:59:16.776Z,25.06
2022-09-22T11:02:06.076Z,25.13
2022-09-22T11:04:58.073Z,25.11
2022-09-22T11:08:11.374Z,25.28
2022-09-22T11:11:16.633Z,25.56
2022-09-22T11:14:01.539Z,25.52
2022-09-22T11:17:10.445Z,25.62
2022-09-22T11:20:09.590Z,25.81
2022-09-22T11:23:02.304Z,26.00
2022-09-22T11:25:49.018Z,26.16
2022-09-22T11:28:38.776Z,26.13
2022-09-22T11:31:23.544Z,26.27
2022-09-22T11:34:08.450Z,26.36
2022-09-22T11:36:52.841Z,26.46
2022-09-22T11:39:44.336Z,26.60
2022-09-22T11:42:26.590Z,26.73
2022-09-22T11:45:08.361Z,26.74
2022-09-22T11:47:54.133Z,26.77
2022-09-22T11:50:49.699Z,26.83
2022-09-22T11:53:42.014Z,26.97
2022-09-22T11:56:38.489Z,27.15
2022-09-22T11:59:36.489Z,27.32
2022-09-22T12:02:18.601Z,27.24
2022-09-22T12:04:58.145Z,27.41
2022-09-22T12:07:34.090Z,27.49
2022-09-22T12:10:15.029Z,27.55
2022-09-22T12:12:50.723Z,27.63
2022-09-22T12:15:30.451Z,27.78
2022-09-22T12:18:11.155Z,27.78
2022-09-22T12:20:55.245Z,27.80
2022-09-22T12:23:40.205Z,27.90
2022-09-22T12:26:16.374Z,27.86
2022-09-22T12:28:49.698Z,27.77
2022-09-22T12:31:35.126Z,27.85
2022-09-22T12:34:19.241Z,27.98
2022-09-22T12:36:54.840Z,27.88
2022-09-22T12:39:31.038Z,27.93
2022-09-22T12:42:06.127Z,28.05
2022-09-22T12:44:46.345Z,28.19
2022-09-22T12:47:23.884Z,28.29
2022-09-22T12:49:58.955Z,28.40
2022-09-22T12:53:03.387Z,28.55
2022-09-22T12:55:41.930Z,28.55
2022-09-22T12:58:43.741Z,28.68
2022-09-22T13:01:34.596Z,28.66
2022-09-22T13:04:15.216Z,28.78
2022-09-22T13:07:01.367Z,28.90
2022-09-22T13:09:35.573Z,28.82
2022-09-22T13:12:31.100Z,28.81
2022-09-22T13:15:24.736Z,28.84
2022-09-22T13:17:57.717Z,29.08
2022-09-22T13:20:32.939Z,29.04
2022-09-22T13:23:06.602Z,29.24
2022-09-22T13:25:42.466Z,29.20
2022-09-22T13:28:19.019Z,29.09
2022-09-22T13:31:03.578Z,28.90
2022-09-22T13:33:38.903Z,29.11
2022-09-22T13:36:14.994Z,29.15
2022-09-22T13:38:51.277Z,29.21
2022-09-22T13:41:27.885Z,29.27
2022-09-22T13:44:04.836Z,29.25
2022-09-22T13:46:40.964Z,29.32
2022-09-22T13:49:18.140Z,29.18
2022-09-22T13:51:57.046Z,29.13
2022-09-22T13:54:34.140Z,29.15
2022-09-22T13:57:20.308Z,29.16
2022-09-22T13:59:53.363Z,29.06
2022-09-22T14:02:31.960Z,29.18
2022-09-22T14:05:09.785Z,29.24
2022-09-22T14:08:00.845Z,29.03
2022-09-22T14:10:35.726Z,28.84
2022-09-22T14:13:43.789Z,28.87
2022-09-22T14:16:23.752Z,29.03
2022-09-22T14:19:01.369Z,28.98
2022-09-22T14:21:41.612Z,28.95
2022-09-22T14:24:15.496Z,28.97
2022-09-22T14:26:50.536Z,28.98
2022-09-22T14:29:28.812Z,28.74
2022-09-22T14:32:13.168Z,28.61
2022-09-22T14:34:48.996Z,28.66
2022-09-22T14:37:27.923Z,28.58
2022-09-22T14:40:04.311Z,28.43
2022-09-22T14:42:37.216Z,28.23
2022-09-22T14:45:20.833Z,28.18
2022-09-22T14:48:12.381Z,28.03
2022-09-22T14:50:48.560Z,27.91
2022-09-22T14:53:26.261Z,27.85
2022-09-22T14:56:04.127Z,27.84
2022-09-22T14:58:40.597Z,27.73
2022-09-22T15:01:39.541Z,27.63
2022-09-22T15:04:16.440Z,27.44
2022-09-22T15:06:50.225Z,27.31
2022-09-22T15:09:26.237Z,27.12
2022-09-22T15:12:01.796Z,27.08
2022-09-22T15:14:42.908Z,27.02
2022-09-22T15:17:56.107Z,26.91
2022-09-22T15:20:34.925Z,26.76
2022-09-22T15:23:17.063Z,26.67
2022-09-22T15:25:51.291Z,26.65
2022-09-22T15:28:26.945Z,26.52
2022-09-22T15:30:59.624Z,26.53
2022-09-22T15:33:34.147Z,26.49
2022-09-22T15:36:14.208Z,26.46
2022-09-22T15:38:47.305Z,26.36
2022-09-22T15:41:19.913Z,26.23
2022-09-22T15:43:52.881Z,26.20
2022-09-22T15:46:33.759Z,26.20
2022-09-22T15:49:13.714Z,26.04
2022-09-22T15:51:49.093Z,26.02
2022-09-22T15:54:24.365Z,25.93
2022-09-22T15:56:58.140Z,25.82
2022-09-22T15:59:33.865Z,25.75
2022-09-22T16:02:11.554Z,25.70
2022-09-22T16:04:45.693Z,25.72
2022-09-22T16:07:18.600Z,25.65
2022-09-22T16:09:51.097Z,25.61
2022-09-22T16:12:25.442Z,25.59
2022-09-22T16:14:59.129Z,25.53
2022-09-22T16:17:32.325Z,25.41
2022-09-22T16:20:08.085Z,25.34
2022-09-22T16:22:41.260Z,25.26
2022-09-22T16:25:15.388Z,25.28
2022-09-22T16:27:48.127Z,25.22
2022-09-22T16:30:25.238Z,25.11
2022-09-22T16:32:58.468Z,25.06
2022-09-22T16:35:32.504Z,24.77
2022-09-22T16:38:07.391Z,24.65
2022-09-22T16:40:40.554Z,24.45
2022-09-22T16:43:13.555Z,24.21
2022-09-22T16:46:04.054Z,24.16
2022-09-22T16:48:41.703Z,24.21
2022-09-22T16:51:16.214Z,23.99
2022-09-22T16:53:53.766Z,23.94
2022-09-22T16:56:30.897Z,23.95
2022-09-22T16:59:03.928Z,23.83
2022-09-22T17:01:38.429Z,23.77
2022-09-22T17:04:12.811Z,23.73
2022-09-22T17:06:47.730Z,23.65
2022-09-22T17:09:20.362Z,23.52
2022-09-22T17:11:53.582Z,23.40
2022-09-22T17:14:27.793Z,23.32
2022-09-22T17:17:06.375Z,23.19
2022-09-22T17:19:39.080Z,23.10
2022-09-22T17:22:13.180Z,23.01
2022-09-22T17:24:46.010Z,22.93
2022-09-22T17:27:19.017Z,22.96
2022-09-22T17:29:51.832Z,22.83
2022-09-22T17:32:27.978Z,22.71
2022-09-22T17:35:00.927Z,22.54
2022-09-22T17:37:36.557Z,22.51
2022-09-22T17:40:11.735Z,22.48
2022-09-22T17:42:44.546Z,22.33
2022-09-22T17:45:20.850Z,22.29
2022-09-22T17:48:13.643Z,22.14
2022-09-22T17:51:07.677Z,22.12
2022-09-22T17:53:59.148Z,22.03
2022-09-22T17:56:31.946Z,21.98
2022-09-22T17:59:04.830Z,21.87
2022-09-22T18:01:37.955Z,21.87
2022-09-22T18:04:10.697Z,21.77
2022-09-22T18:06:43.841Z,21.64
2022-09-22T18:09:18.686Z,21.55
2022-09-22T18:11:51.946Z,21.47
2022-09-22T18:14:25.450Z,21.40
2022-09-22T18:16:58.842Z,21.39
2022-09-22T18:19:34.581Z,21.28
2022-09-22T18:22:11.054Z,21.17
2022-09-22T18:24:45.220Z,21.09
2022-09-22T18:27:20.646Z,21.01
2022-09-22T18:29:58.266Z,21.00
2022-09-22T18:32:31.016Z,20.88
2022-09-22T18:35:05.434Z,20.86
2022-09-22T18:37:38.398Z,20.81
2022-09-22T18:40:12.970Z,20.71
2022-09-22T18:42:46.045Z,20.66
2022-09-22T18:45:19.422Z,20.64
2022-09-22T18:47:52.165Z,20.61
2022-09-22T18:50:24.946Z,20.59
2022-09-22T18:52:58.122Z,20.41
2022-09-22T18:55:32.411Z,20.51
2022-09-22T18:58:05.187Z,20.42
2022-09-22T19:00:37.845Z,20.34
2022-09-22T19:03:10.554Z,20.28
2022-09-22T19:05:43.232Z,20.27
2022-09-22T19:08:15.869Z,20.24
2022-09-22T19:10:50.120Z,20.21
2022-09-22T19:13:23.731Z,20.15
2022-09-22T19:15:58.106Z,20.15
2022-09-22T19:18:31.648Z,20.05
2022-09-22T19:21:04.787Z,20.10
2022-09-22T19:23:37.633Z,20.05
2022-09-22T19:26:12.795Z,19.91
2022-09-22T19:28:45.716Z,19.85
2022-09-22T19:31:18.516Z,19.82
2022-09-22T19:33:51.314Z,19.73
2022-09-22T19:36:24.004Z,19.65
2022-09-22T19:38:57.087Z,19.68
2022-09-22T19:41:30.997Z,19.59
2022-09-22T19:44:04.860Z,19.61
2022-09-22T19:46:37.616Z,19.50
2022-09-22T19:49:10.684Z,19.47
2022-09-22T19:51:43.400Z,19.48
2022-09-22T19:54:16.618Z,19.46
2022-09-22T19:56:50.687Z,19.41
2022-09-22T19:59:23.316Z,19.38
2022-09-22T20:01:56.290Z,19.38
2022-09-22T20:04:29.513Z,19.33
2022-09-22T20:07:03.224Z,19.28
2022-09-22T20:09:36.424Z,19.24
2022-09-22T20:12:10.287Z,19.17
2022-09-22T20:14:43.433Z,19.12
2022-09-22T20:17:16.486Z,19.13
2022-09-22T20:19:49.025Z,19.00
2022-09-22T20:22:25.189Z,18.97
2022-09-22T20:25:01.453Z,19.01
2022-09-22T20:27:37.856Z,18.92
2022-09-22T20:30:12.108Z,18.95
2022-09-22T20:32:45.555Z,18.90
2022-09-22T20:35:21.897Z,18.86
2022-09-22T20:37:57.490Z,19.01
2022-09-22T20:40:30.501Z,19.20
2022-09-22T20:43:05.231Z,19.26
2022-09-22T20:45:39.049Z,19.26
2022-09-22T20:48:17.072Z,19.19
2022-09-22T20:50:56.377Z,19.17
2022-09-22T20:53:29.364Z,19.13
2022-09-22T20:56:02.587Z,19.10
2022-09-22T20:58:42.024Z,19.07
2022-09-22T21:01:18.003Z,19.00
2022-09-22T21:03:51.021Z,19.02
2022-09-22T21:06:24.544Z,18.98
2022-09-22T21:09:15.873Z,18.97
2022-09-22T21:11:48.874Z,18.93
2022-09-22T21:14:23.208Z,18.95
2022-09-22T21:16:56.110Z,18.96
2022-09-22T21:19:29.060Z,18.96
2022-09-22T21:22:02.078Z,18.91
2022-09-22T21:24:34.953Z,18.87
2022-09-22T21:27:07.842Z,18.89
2022-09-22T21:29:42.556Z,18.87
2022-09-22T21:32:15.473Z,18.83
2022-09-22T21:34:48.286Z,18.84
2022-09-22T21:37:23.451Z,18.86
2022-09-22T21:39:56.184Z,18.80
2022-09-22T21:42:29.023Z,18.76
2022-09-22T21:45:05.683Z,18.75
2022-09-22T21:47:39.433Z,18.81
2022-09-22T21:50:12.848Z,18.75
2022-09-22T21:52:45.771Z,18.76
2022-09-22T21:55:18.694Z,18.74
2022-09-22T21:57:53.343Z,18.75
2022-09-22T22:00:50.348Z,18.82
2022-09-22T22:03:32.365Z,18.69
2022-09-22T22:06:10.492Z,18.76
2022-09-22T22:08:45.724Z,18.63
2022-09-22T22:11:21.034Z,18.49
2022-09-22T22:13:55.511Z,18.46
2022-09-22T22:16:32.094Z,18.47
2022-09-22T22:19:05.250Z,18.46
2022-09-22T22:21:40.775Z,18.42
2022-09-22T22:24:36.546Z,18.40
2022-09-22T22:27:11.815Z,18.34
2022-09-22T22:29:46.703Z,18.29
2022-09-22T22:32:21.897Z,18.38
2022-09-22T22:34:54.678Z,18.32
2022-09-22T22:37:27.401Z,18.30
2022-09-22T22:40:01.308Z,18.27
2022-09-22T22:42:34.053Z,18.23
2022-09-22T22:45:08.036Z,18.26
2022-09-22T22:47:42.081Z,18.25
2022-09-22T22:50:15.372Z,18.17
2022-09-22T22:52:48.086Z,18.10
2022-09-22T22:55:21.390Z,18.19
2022-09-22T22:57:54.175Z,18.12
2022-09-22T23:00:27.021Z,18.13
2022-09-22T23:03:01.565Z,18.13
2022-09-22T23:05:37.416Z,18.05
2022-09-22T23:08:13.586Z,18.00
2022-09-22T23:10:46.714Z,17.91
2022-09-22T23:13:19.731Z,17.91
2022-09-22T23:15:52.513Z,17.93
2022-09-22T23:18:27.305Z,17.93
2022-09-22T23:21:00.212Z,17.90
2022-09-22T23:23:33.898Z,17.99
2022-09-22T23:26:07.593Z,17.92
2022-09-22T23:28:40.455Z,17.94
2022-09-22T23:31:15.435Z,17.94
2022-09-22T23:33:51.602Z,17.92
2022-09-22T23:36:26.810Z,17.89
2022-09-22T23:39:04.490Z,17.87
2022-09-22T23:41:38.252Z,17.89
2022-09-22T23:44:14.339Z,17.84
2022-09-22T23:46:47.468Z,17.80
2022-09-22T23:49:21.611Z,17.85
2022-09-22T23:51:55.345Z,17.86
2022-09-22T23:54:28.098Z,17.82
2022-09-22T23:57:01.397Z,17.82
2022-09-22T23:59:34.155Z,17.83
